createdAt,value
2019-04-01T00:00:30.994Z,1014.5
2019-04-01T00:01:30.964Z,1014.49
2019-04-01T00:02:30.933Z,1014.46
2019-04-01T00:03:30.905Z,1014.45
2019-04-01T00:04:30.877Z,1014.46
2019-04-01T00:05:30.847Z,1014.44
2019-04-01T00:06:30.815Z,1014.42
2019-04-01T00:07:30.787Z,1014.45
2019-04-01T00:08:30.758Z,1014.45
2019-04-01T00:09:30.731Z,1014.4
2019-04-01T00:10:30.698Z,1014.42
2019-04-01T00:11:30.751Z,1014.41
2019-04-01T00:12:30.641Z,1014.45
2019-04-01T00:13:30.609Z,1014.41
2019-04-01T00:14:30.580Z,1014.46
2019-04-01T00:15:30.552Z,1014.46
2019-04-01T00:16:30.520Z,1014.47
2019-04-01T00:17:30.491Z,1014.47
2019-04-01T00:18:30.464Z,1014.44
2019-04-01T00:19:30.435Z,1014.45
2019-04-01T00:20:30.401Z,1014.41
2019-04-01T00:21:30.371Z,1014.4
2019-04-01T00:22:30.382Z,1014.42
2019-04-01T00:23:30.312Z,1014.39
2019-04-01T00:24:30.288Z,1014.36
2019-04-01T00:25:30.254Z,1014.36
2019-04-01T00:26:30.229Z,1014.36
2019-04-01T00:27:30.194Z,1014.37
2019-04-01T00:28:30.165Z,1014.34
2019-04-01T00:29:30.136Z,1014.37
2019-04-01T00:30:30.105Z,1014.39
2019-04-01T00:31:30.075Z,1014.41
2019-04-01T00:32:30.045Z,1014.36
2019-04-01T00:33:30.016Z,1014.39
2019-04-01T00:34:29.989Z,1014.36
2019-04-01T00:35:29.956Z,1014.44
2019-04-01T00:36:29.928Z,1014.42
2019-04-01T00:37:29.896Z,1014.41
2019-04-01T00:38:29.867Z,1014.39
2019-04-01T00:39:29.844Z,1014.38
2019-04-01T00:40:29.807Z,1014.38
2019-04-01T00:41:29.778Z,1014.35
2019-04-01T00:42:29.747Z,1014.35
2019-04-01T00:43:29.717Z,1014.35
2019-04-01T00:44:29.686Z,1014.34
2019-04-01T00:45:29.658Z,1014.34
2019-04-01T00:46:29.639Z,1014.3
2019-04-01T00:47:29.598Z,1014.32
2019-04-01T00:48:29.568Z,1014.31
2019-04-01T00:49:29.539Z,1014.31
2019-04-01T00:50:30.710Z,1014.3
2019-04-01T00:51:29.476Z,1014.3
2019-04-01T00:52:29.447Z,1014.34
2019-04-01T00:53:29.417Z,1014.26
2019-04-01T00:54:29.387Z,1014.28
2019-04-01T00:55:29.359Z,1014.28
2019-04-01T00:56:29.329Z,1014.25
2019-04-01T00:57:29.298Z,1014.27
2019-04-01T00:58:30.576Z,1014.26
2019-04-01T00:59:29.238Z,1014.26
2019-04-01T01:00:29.211Z,1014.25
2019-04-01T01:01:29.178Z,1014.26
2019-04-01T01:02:29.149Z,1014.23
2019-04-01T01:03:29.119Z,1014.23
2019-04-01T01:04:29.088Z,1014.24
2019-04-01T01:05:29.057Z,1014.25
2019-04-01T01:06:29.031Z,1014.25
2019-04-01T01:07:28.997Z,1014.26
2019-04-01T01:08:28.968Z,1014.25
2019-04-01T01:09:28.938Z,1014.24
2019-04-01T01:10:28.908Z,1014.22
2019-04-01T01:11:28.879Z,1014.19
2019-04-01T01:12:28.847Z,1014.24
2019-04-01T01:13:28.817Z,1014.16
2019-04-01T01:14:28.788Z,1014.19
2019-04-01T01:15:28.756Z,1014.2
2019-04-01T01:16:28.727Z,1014.18
2019-04-01T01:17:28.698Z,1014.17
2019-04-01T01:18:28.668Z,1014.12
2019-04-01T01:19:28.637Z,1014.13
2019-04-01T01:20:28.608Z,1014.12
2019-04-01T01:21:28.577Z,1014.08
2019-04-01T01:22:28.547Z,1014.08
2019-04-01T01:23:28.517Z,1014.02
2019-04-01T01:24:28.486Z,1014.04
2019-04-01T01:25:28.458Z,1014.09
2019-04-01T01:26:28.426Z,1014.06
2019-04-01T01:27:28.396Z,1014.08
2019-04-01T01:28:28.365Z,1014.05
2019-04-01T01:29:28.340Z,1014.07
2019-04-01T01:30:28.305Z,1014.12
2019-04-01T01:31:28.275Z,1014.1
2019-04-01T01:32:28.244Z,1014.06
2019-04-01T01:33:28.213Z,1014.08
2019-04-01T01:34:28.190Z,1014.04
2019-04-01T01:35:28.154Z,1014.12
2019-04-01T01:36:28.124Z,1014.02
2019-04-01T01:37:28.093Z,1014.07
2019-04-01T01:38:28.063Z,1014
2019-04-01T01:39:28.032Z,1013.99
2019-04-01T01:40:28.002Z,1013.98
2019-04-01T01:41:27.971Z,1013.98
2019-04-01T01:42:27.943Z,1014.02
2019-04-01T01:43:27.913Z,1014
2019-04-01T01:44:27.880Z,1014
2019-04-01T01:45:27.850Z,1014.01
2019-04-01T01:46:27.822Z,1013.99
2019-04-01T01:47:27.790Z,1014
2019-04-01T01:48:27.808Z,1013.99
2019-04-01T01:49:27.730Z,1013.99
2019-04-01T01:50:27.710Z,1013.95
2019-04-01T01:51:27.669Z,1013.88
2019-04-01T01:52:27.638Z,1013.89
2019-04-01T01:53:27.608Z,1013.86
2019-04-01T01:54:27.577Z,1013.89
2019-04-01T01:55:27.547Z,1013.9
2019-04-01T01:56:27.517Z,1013.89
2019-04-01T01:57:27.486Z,1013.84
2019-04-01T01:58:27.455Z,1013.87
2019-04-01T01:59:27.425Z,1013.85
2019-04-01T02:00:27.393Z,1013.85
2019-04-01T02:01:27.364Z,1013.83
2019-04-01T02:02:27.336Z,1013.85
2019-04-01T02:03:27.303Z,1013.84
2019-04-01T02:04:27.272Z,1013.85
2019-04-01T02:05:27.242Z,1013.79
2019-04-01T02:06:27.211Z,1013.81
2019-04-01T02:07:27.181Z,1013.85
2019-04-01T02:08:27.150Z,1013.85
2019-04-01T02:09:27.122Z,1013.82
2019-04-01T02:10:27.089Z,1013.82
2019-04-01T02:11:27.059Z,1013.85
2019-04-01T02:12:27.032Z,1013.79
2019-04-01T02:13:26.998Z,1013.84
2019-04-01T02:14:26.969Z,1013.84
2019-04-01T02:15:26.939Z,1013.81
2019-04-01T02:16:26.907Z,1013.79
2019-04-01T02:17:26.875Z,1013.76
2019-04-01T02:18:26.844Z,1013.76
2019-04-01T02:19:26.813Z,1013.76
2019-04-01T02:20:26.784Z,1013.75
2019-04-01T02:21:26.752Z,1013.78
2019-04-01T02:22:26.723Z,1013.73
2019-04-01T02:23:26.692Z,1013.73
2019-04-01T02:24:26.661Z,1013.66
2019-04-01T02:25:26.635Z,1013.7
2019-04-01T02:26:26.600Z,1013.68
2019-04-01T02:27:26.568Z,1013.74
2019-04-01T02:28:26.537Z,1013.66
2019-04-01T02:29:26.507Z,1013.69
2019-04-01T02:30:26.479Z,1013.69
2019-04-01T02:31:26.449Z,1013.68
2019-04-01T02:32:26.422Z,1013.68
2019-04-01T02:33:26.394Z,1013.66
2019-04-01T02:34:26.356Z,1013.67
2019-04-01T02:35:26.327Z,1013.63
2019-04-01T02:36:26.294Z,1013.61
2019-04-01T02:37:26.263Z,1013.62
2019-04-01T02:38:26.238Z,1013.62
2019-04-01T02:39:26.200Z,1013.62
2019-04-01T02:40:26.180Z,1013.63
2019-04-01T02:41:26.148Z,1013.72
2019-04-01T02:42:26.110Z,1013.68
2019-04-01T02:43:26.079Z,1013.68
2019-04-01T02:44:26.049Z,1013.7
2019-04-01T02:45:26.017Z,1013.71
2019-04-01T02:46:25.992Z,1013.65
2019-04-01T02:47:25.957Z,1013.68
2019-04-01T02:48:25.934Z,1013.7
2019-04-01T02:49:25.895Z,1013.66
2019-04-01T02:50:25.864Z,1013.67
2019-04-01T02:51:25.833Z,1013.68
2019-04-01T02:52:25.802Z,1013.68
2019-04-01T02:53:25.771Z,1013.65
2019-04-01T02:54:25.789Z,1013.69
2019-04-01T02:55:25.712Z,1013.67
2019-04-01T02:56:25.680Z,1013.66
2019-04-01T02:57:25.649Z,1013.65
2019-04-01T02:58:25.618Z,1013.66
2019-04-01T02:59:25.665Z,1013.64
2019-04-01T03:00:25.556Z,1013.64
2019-04-01T03:01:25.530Z,1013.64
2019-04-01T03:02:25.494Z,1013.64
2019-04-01T03:03:25.462Z,1013.63
2019-04-01T03:04:25.432Z,1013.61
2019-04-01T03:05:25.415Z,1013.59
2019-04-01T03:06:25.370Z,1013.61
2019-04-01T03:07:25.340Z,1013.58
2019-04-01T03:08:25.307Z,1013.54
2019-04-01T03:09:25.276Z,1013.52
2019-04-01T03:10:25.246Z,1013.52
2019-04-01T03:11:25.215Z,1013.48
2019-04-01T03:12:25.183Z,1013.49
2019-04-01T03:13:25.153Z,1013.47
2019-04-01T03:14:25.220Z,1013.44
2019-04-01T03:15:25.250Z,1013.45
2019-04-01T03:16:25.074Z,1013.47
2019-04-01T03:17:25.061Z,1013.46
2019-04-01T03:18:24.998Z,1013.49
2019-04-01T03:19:24.965Z,1013.47
2019-04-01T03:20:24.937Z,1013.48
2019-04-01T03:21:24.903Z,1013.47
2019-04-01T03:22:24.875Z,1013.43
2019-04-01T03:23:24.844Z,1013.47
2019-04-01T03:24:24.822Z,1013.48
2019-04-01T03:25:24.779Z,1013.43
2019-04-01T03:26:24.752Z,1013.47
2019-04-01T03:27:24.716Z,1013.48
2019-04-01T03:28:24.684Z,1013.46
2019-04-01T03:29:24.693Z,1013.46
2019-04-01T03:30:24.631Z,1013.44
2019-04-01T03:31:24.592Z,1013.45
2019-04-01T03:32:24.596Z,1013.42
2019-04-01T03:33:24.530Z,1013.48
2019-04-01T03:34:24.499Z,1013.47
2019-04-01T03:35:24.468Z,1013.46
2019-04-01T03:36:24.436Z,1013.45
2019-04-01T03:37:24.406Z,1013.42
2019-04-01T03:38:27.749Z,1013.39
2019-04-01T03:39:24.344Z,1013.4
2019-04-01T03:40:24.314Z,1013.39
2019-04-01T03:41:24.283Z,1013.46
2019-04-01T03:42:24.248Z,1013.43
2019-04-01T03:43:24.220Z,1013.39
2019-04-01T03:44:24.187Z,1013.41
2019-04-01T03:45:24.155Z,1013.43
2019-04-01T03:46:24.124Z,1013.42
2019-04-01T03:47:24.096Z,1013.45
2019-04-01T03:48:24.062Z,1013.41
2019-04-01T03:49:24.029Z,1013.43
2019-04-01T03:50:23.998Z,1013.43
2019-04-01T03:51:23.966Z,1013.42
2019-04-01T03:52:23.935Z,1013.42
2019-04-01T03:53:23.905Z,1013.43
2019-04-01T03:54:23.876Z,1013.4
2019-04-01T03:55:23.842Z,1013.42
2019-04-01T03:56:23.810Z,1013.43
2019-04-01T03:57:23.783Z,1013.45
2019-04-01T03:58:23.749Z,1013.43
2019-04-01T03:59:23.720Z,1013.41
2019-04-01T04:00:23.687Z,1013.42
2019-04-01T04:01:23.655Z,1013.41
2019-04-01T04:02:23.634Z,1013.41
2019-04-01T04:03:23.592Z,1013.45
2019-04-01T04:04:23.613Z,1013.48
2019-04-01T04:05:23.528Z,1013.47
2019-04-01T04:06:23.507Z,1013.47
2019-04-01T04:07:23.466Z,1013.44
2019-04-01T04:08:23.436Z,1013.48
2019-04-01T04:09:23.404Z,1013.48
2019-04-01T04:10:23.375Z,1013.42
2019-04-01T04:11:23.339Z,1013.43
2019-04-01T04:12:23.310Z,1013.42
2019-04-01T04:13:23.279Z,1013.4
2019-04-01T04:14:23.358Z,1013.43
2019-04-01T04:15:23.216Z,1013.43
2019-04-01T04:16:23.184Z,1013.42
2019-04-01T04:17:23.154Z,1013.45
2019-04-01T04:18:23.126Z,1013.38
2019-04-01T04:19:23.088Z,1013.4
2019-04-01T04:20:23.064Z,1013.38
2019-04-01T04:21:24.005Z,1013.4
2019-04-01T04:22:23.001Z,1013.38
2019-04-01T04:23:22.966Z,1013.37
2019-04-01T04:24:22.939Z,1013.39
2019-04-01T04:25:22.903Z,1013.38
2019-04-01T04:26:22.872Z,1013.38
2019-04-01T04:27:22.854Z,1013.4
2019-04-01T04:28:22.812Z,1013.37
2019-04-01T04:29:22.777Z,1013.42
2019-04-01T04:30:22.753Z,1013.43
2019-04-01T04:31:22.714Z,1013.38
2019-04-01T04:32:22.685Z,1013.37
2019-04-01T04:33:22.653Z,1013.37
2019-04-01T04:34:22.618Z,1013.35
2019-04-01T04:35:22.587Z,1013.37
2019-04-01T04:36:22.562Z,1013.37
2019-04-01T04:37:22.524Z,1013.38
2019-04-01T04:38:22.493Z,1013.34
2019-04-01T04:39:22.463Z,1013.34
2019-04-01T04:40:22.431Z,1013.34
2019-04-01T04:41:22.555Z,1013.33
2019-04-01T04:42:22.369Z,1013.34
2019-04-01T04:43:22.338Z,1013.34
2019-04-01T04:44:22.304Z,1013.35
2019-04-01T04:45:22.277Z,1013.33
2019-04-01T04:46:22.242Z,1013.3
2019-04-01T04:47:22.210Z,1013.35
2019-04-01T04:48:22.179Z,1013.32
2019-04-01T04:49:22.146Z,1013.37
2019-04-01T04:50:22.117Z,1013.34
2019-04-01T04:51:22.086Z,1013.37
2019-04-01T04:52:22.053Z,1013.36
2019-04-01T04:53:22.021Z,1013.34
2019-04-01T04:54:21.988Z,1013.29
2019-04-01T04:55:21.958Z,1013.3
2019-04-01T04:56:21.926Z,1013.29
2019-04-01T04:57:21.897Z,1013.3
2019-04-01T04:58:21.862Z,1013.29
2019-04-01T04:59:21.831Z,1013.28
2019-04-01T05:00:21.802Z,1013.3
2019-04-01T05:01:21.769Z,1013.31
2019-04-01T05:02:24.385Z,1013.3
2019-04-01T05:03:21.705Z,1013.29
2019-04-01T05:04:21.674Z,1013.33
2019-04-01T05:05:21.641Z,1013.33
2019-04-01T05:06:21.611Z,1013.33
2019-04-01T05:07:21.580Z,1013.35
2019-04-01T05:08:21.559Z,1013.35
2019-04-01T05:09:21.516Z,1013.31
2019-04-01T05:10:21.564Z,1013.31
2019-04-01T05:11:21.452Z,1013.27
2019-04-01T05:12:21.422Z,1013.28
2019-04-01T05:13:21.399Z,1013.32
2019-04-01T05:14:21.362Z,1013.28
2019-04-01T05:15:21.326Z,1013.28
2019-04-01T05:16:21.523Z,1013.31
2019-04-01T05:17:21.264Z,1013.3
2019-04-01T05:18:21.231Z,1013.32
2019-04-01T05:19:21.200Z,1013.3
2019-04-01T05:20:21.167Z,1013.35
2019-04-01T05:21:21.136Z,1013.34
2019-04-01T05:22:21.107Z,1013.36
2019-04-01T05:23:21.074Z,1013.38
2019-04-01T05:24:21.043Z,1013.36
2019-04-01T05:25:21.012Z,1013.37
2019-04-01T05:26:20.981Z,1013.34
2019-04-01T05:27:20.957Z,1013.34
2019-04-01T05:28:21.183Z,1013.42
2019-04-01T05:29:20.886Z,1013.35
2019-04-01T05:30:20.930Z,1013.41
2019-04-01T05:31:20.822Z,1013.39
2019-04-01T05:32:20.793Z,1013.35
2019-04-01T05:33:20.760Z,1013.33
2019-04-01T05:34:20.728Z,1013.39
2019-04-01T05:35:20.697Z,1013.41
2019-04-01T05:36:20.666Z,1013.41
2019-04-01T05:37:20.635Z,1013.41
2019-04-01T05:38:20.603Z,1013.41
2019-04-01T05:39:20.596Z,1013.41
2019-04-01T05:40:20.540Z,1013.39
2019-04-01T05:41:20.516Z,1013.39
2019-04-01T05:42:20.477Z,1013.42
2019-04-01T05:43:20.445Z,1013.42
2019-04-01T05:44:20.414Z,1013.4
2019-04-01T05:45:20.384Z,1013.37
2019-04-01T05:46:20.350Z,1013.4
2019-04-01T05:47:20.321Z,1013.38
2019-04-01T05:48:20.290Z,1013.42
2019-04-01T05:49:20.256Z,1013.44
2019-04-01T05:50:20.226Z,1013.44
2019-04-01T05:51:20.198Z,1013.43
2019-04-01T05:52:20.215Z,1013.42
2019-04-01T05:53:20.133Z,1013.39
2019-04-01T05:54:20.101Z,1013.39
2019-04-01T05:55:20.070Z,1013.39
2019-04-01T05:56:20.554Z,1013.42
2019-04-01T05:57:20.531Z,1013.43
2019-04-01T05:58:20.423Z,1013.39
2019-04-01T05:59:20.338Z,1013.37
2019-04-01T06:00:20.893Z,1013.36
2019-04-01T06:01:20.530Z,1013.38
2019-04-01T06:02:20.453Z,1013.35
2019-04-01T06:03:19.967Z,1013.36
2019-04-01T06:04:20.309Z,1013.41
2019-04-01T06:05:20.133Z,1013.4
2019-04-01T06:06:20.055Z,1013.38
2019-04-01T06:07:20.316Z,1013.41
2019-04-01T06:08:20.170Z,1013.42
2019-04-01T06:09:20.109Z,1013.4
2019-04-01T06:10:20.066Z,1013.41
2019-04-01T06:11:19.876Z,1013.42
2019-04-01T06:12:19.561Z,1013.4
2019-04-01T06:13:19.875Z,1013.42
2019-04-01T06:14:20.056Z,1013.45
2019-04-01T06:15:19.999Z,1013.42
2019-04-01T06:16:19.780Z,1013.38
2019-04-01T06:17:19.988Z,1013.4
2019-04-01T06:18:19.953Z,1013.35
2019-04-01T06:19:19.905Z,1013.4
2019-04-01T06:20:19.595Z,1013.36
2019-04-01T06:21:19.640Z,1013.38
2019-04-01T06:22:19.809Z,1013.37
2019-04-01T06:23:19.709Z,1013.41
2019-04-01T06:24:19.706Z,1013.41
2019-04-01T06:25:19.782Z,1013.41
2019-04-01T06:26:19.440Z,1013.38
2019-04-01T06:27:19.617Z,1013.4
2019-04-01T06:28:19.498Z,1013.37
2019-04-01T06:29:19.547Z,1013.35
2019-04-01T06:30:19.490Z,1013.4
2019-04-01T06:31:19.462Z,1013.33
2019-04-01T06:32:19.253Z,1013.35
2019-04-01T06:33:19.252Z,1013.32
2019-04-01T06:34:19.250Z,1013.33
2019-04-01T06:35:19.264Z,1013.32
2019-04-01T06:36:19.429Z,1013.34
2019-04-01T06:37:19.257Z,1013.35
2019-04-01T06:38:19.130Z,1013.34
2019-04-01T06:39:18.908Z,1013.31
2019-04-01T06:40:19.226Z,1013.33
2019-04-01T06:41:19.060Z,1013.31
2019-04-01T06:42:18.973Z,1013.35
2019-04-01T06:43:18.758Z,1013.34
2019-04-01T06:44:19.147Z,1013.35
2019-04-01T06:45:18.908Z,1013.34
2019-04-01T06:46:18.735Z,1013.37
2019-04-01T06:47:18.988Z,1013.37
2019-04-01T06:48:18.970Z,1013.34
2019-04-01T06:49:20.407Z,1013.31
2019-04-01T06:50:18.724Z,1013.32
2019-04-01T06:51:19.215Z,1013.32
2019-04-01T06:52:18.699Z,1013.3
2019-04-01T06:53:18.824Z,1013.32
2019-04-01T06:54:18.665Z,1013.35
2019-04-01T06:55:18.853Z,1013.29
2019-04-01T06:56:18.632Z,1013.33
2019-04-01T06:57:18.692Z,1013.28
2019-04-01T06:58:18.535Z,1013.3
2019-04-01T06:59:18.598Z,1013.29
2019-04-01T07:00:18.398Z,1013.26
2019-04-01T07:01:18.370Z,1013.23
2019-04-01T07:02:18.570Z,1013.29
2019-04-01T07:03:19.015Z,1013.24
2019-04-01T07:04:18.191Z,1013.29
2019-04-01T07:05:18.550Z,1013.27
2019-04-01T07:06:18.439Z,1013.28
2019-04-01T07:07:19.544Z,1013.24
2019-04-01T07:08:18.396Z,1013.26
2019-04-01T07:09:18.194Z,1013.25
2019-04-01T07:10:18.159Z,1013.26
2019-04-01T07:11:18.298Z,1013.27
2019-04-01T07:12:18.290Z,1013.28
2019-04-01T07:13:18.160Z,1013.24
2019-04-01T07:14:18.363Z,1013.25
2019-04-01T07:15:17.998Z,1013.27
2019-04-01T07:16:18.183Z,1013.29
2019-04-01T07:17:18.015Z,1013.3
2019-04-01T07:18:18.036Z,1013.29
2019-04-01T07:19:17.889Z,1013.29
2019-04-01T07:20:17.862Z,1013.27
2019-04-01T07:21:17.856Z,1013.27
2019-04-01T07:22:17.883Z,1013.25
2019-04-01T07:23:17.774Z,1013.25
2019-04-01T07:24:17.847Z,1013.24
2019-04-01T07:25:17.615Z,1013.25
2019-04-01T07:26:17.663Z,1013.21
2019-04-01T07:27:19.198Z,1013.25
2019-04-01T07:28:17.703Z,1013.23
2019-04-01T07:29:17.707Z,1013.19
2019-04-01T07:30:17.657Z,1013.17
2019-04-01T07:31:17.640Z,1013.17
2019-04-01T07:32:17.586Z,1013.16
2019-04-01T07:33:17.471Z,1013.19
2019-04-01T07:34:17.675Z,1013.15
2019-04-01T07:35:17.595Z,1013.17
2019-04-01T07:36:17.549Z,1013.12
2019-04-01T07:37:17.193Z,1013.16
2019-04-01T07:38:17.265Z,1013.14
2019-04-01T07:39:17.338Z,1013.09
2019-04-01T07:40:17.279Z,1013.13
2019-04-01T07:41:17.220Z,1013.07
2019-04-01T07:42:17.227Z,1013.12
2019-04-01T07:43:17.176Z,1013.13
2019-04-01T07:44:17.034Z,1013.11
2019-04-01T07:45:17.375Z,1013.07
2019-04-01T07:46:17.335Z,1013.02
2019-04-01T07:47:17.208Z,1013.03
2019-04-01T07:48:16.992Z,1013.05
2019-04-01T07:49:16.974Z,1013.07
2019-04-01T07:50:17.171Z,1013.14
2019-04-01T07:51:17.116Z,1013.1
2019-04-01T07:52:17.083Z,1013.05
2019-04-01T07:53:16.778Z,1013.05
2019-04-01T07:54:18.610Z,1013.06
2019-04-01T07:55:16.935Z,1013.03
2019-04-01T07:56:16.859Z,1013.03
2019-04-01T07:57:16.886Z,1013.01
2019-04-01T07:58:16.885Z,1013.01
2019-04-01T07:59:16.644Z,1012.96
2019-04-01T08:00:16.864Z,1012.96
2019-04-01T08:01:16.831Z,1012.97
2019-04-01T08:02:16.713Z,1012.96
2019-04-01T08:03:16.699Z,1012.98
2019-04-01T08:04:16.745Z,1012.95
2019-04-01T08:05:16.616Z,1012.96
2019-04-01T08:06:16.584Z,1012.97
2019-04-01T08:07:16.490Z,1012.95
2019-04-01T08:08:16.531Z,1012.93
2019-04-01T08:09:16.258Z,1012.89
2019-04-01T08:10:16.624Z,1012.9
2019-04-01T08:11:16.590Z,1012.87
2019-04-01T08:12:16.271Z,1012.91
2019-04-01T08:13:16.428Z,1012.9
2019-04-01T08:14:16.213Z,1012.93
2019-04-01T08:15:16.245Z,1012.93
2019-04-01T08:16:16.229Z,1012.92
2019-04-01T08:17:16.275Z,1012.9
2019-04-01T08:18:16.187Z,1012.9
2019-04-01T08:19:16.234Z,1012.89
2019-04-01T08:20:16.148Z,1012.91
2019-04-01T08:21:16.075Z,1012.89
2019-04-01T08:22:16.122Z,1012.86
2019-04-01T08:23:16.148Z,1012.8
2019-04-01T08:24:16.276Z,1012.85
2019-04-01T08:25:16.139Z,1012.86
2019-04-01T08:26:16.058Z,1012.87
2019-04-01T08:27:16.055Z,1012.88
2019-04-01T08:28:16.034Z,1012.88
2019-04-01T08:29:29.338Z,1012.93
2019-04-01T08:30:15.904Z,1012.9
2019-04-01T08:31:15.964Z,1012.87
2019-04-01T08:32:15.900Z,1012.92
2019-04-01T08:33:15.691Z,1012.9
2019-04-01T08:34:15.810Z,1012.86
2019-04-01T08:35:15.557Z,1012.84
2019-04-01T08:36:15.691Z,1012.87
2019-04-01T08:37:15.851Z,1012.83
2019-04-01T08:38:16.050Z,1012.83
2019-04-01T08:39:15.865Z,1012.82
2019-04-01T08:40:15.829Z,1012.76
2019-04-01T08:41:15.776Z,1012.79
2019-04-01T08:42:15.527Z,1012.84
2019-04-01T08:43:15.473Z,1012.77
2019-04-01T08:44:15.361Z,1012.83
2019-04-01T08:45:15.630Z,1012.74
2019-04-01T08:46:15.654Z,1012.79
2019-04-01T08:47:15.627Z,1012.79
2019-04-01T08:48:15.596Z,1012.7
2019-04-01T08:49:15.650Z,1012.76
2019-04-01T08:50:15.547Z,1012.76
2019-04-01T08:51:15.362Z,1012.74
2019-04-01T08:52:15.153Z,1012.76
2019-04-01T08:53:15.172Z,1012.73
2019-04-01T08:54:15.392Z,1012.61
2019-04-01T08:55:15.383Z,1012.63
2019-04-01T08:56:15.339Z,1012.64
2019-04-01T08:57:15.303Z,1012.59
2019-04-01T08:58:15.273Z,1012.63
2019-04-01T08:59:15.282Z,1012.63
2019-04-01T09:00:15.250Z,1012.6
2019-04-01T09:01:15.058Z,1012.63
2019-04-01T09:02:17.940Z,1012.6
2019-04-01T09:03:14.922Z,1012.56
2019-04-01T09:04:14.979Z,1012.66
2019-04-01T09:05:14.931Z,1012.59
2019-04-01T09:06:14.966Z,1012.53
2019-04-01T09:07:14.934Z,1012.54
2019-04-01T09:08:15.092Z,1012.57
2019-04-01T09:09:14.799Z,1012.5
2019-04-01T09:10:14.876Z,1012.54
2019-04-01T09:11:14.970Z,1012.54
2019-04-01T09:12:15.058Z,1012.47
2019-04-01T09:13:14.911Z,1012.46
2019-04-01T09:14:14.902Z,1012.39
2019-04-01T09:15:14.893Z,1012.41
2019-04-01T09:16:14.667Z,1012.38
2019-04-01T09:17:14.698Z,1012.47
2019-04-01T09:18:14.955Z,1012.44
2019-04-01T09:19:14.445Z,1012.47
2019-04-01T09:20:14.616Z,1012.43
2019-04-01T09:21:14.644Z,1012.43
2019-04-01T09:22:14.397Z,1012.45
2019-04-01T09:23:14.652Z,1012.46
2019-04-01T09:24:14.540Z,1012.47
2019-04-01T09:25:14.449Z,1012.46
2019-04-01T09:26:14.424Z,1012.43
2019-04-01T09:27:14.414Z,1012.38
2019-04-01T09:28:14.439Z,1012.44
2019-04-01T09:29:14.425Z,1012.4
2019-04-01T09:30:14.444Z,1012.4
2019-04-01T09:31:14.444Z,1012.43
2019-04-01T09:32:14.433Z,1012.4
2019-04-01T09:33:14.133Z,1012.36
2019-04-01T09:34:14.110Z,1012.36
2019-04-01T09:35:14.121Z,1012.37
2019-04-01T09:36:14.129Z,1012.35
2019-04-01T09:37:14.149Z,1012.36
2019-04-01T09:38:14.198Z,1012.33
2019-04-01T09:39:13.932Z,1012.33
2019-04-01T09:40:14.059Z,1012.34
2019-04-01T09:41:13.941Z,1012.31
2019-04-01T09:42:14.147Z,1012.26
2019-04-01T09:43:14.363Z,1012.22
2019-04-01T09:44:14.102Z,1012.18
2019-04-01T09:45:14.067Z,1012.15
2019-04-01T09:46:13.913Z,1012.1
2019-04-01T09:47:13.878Z,1012.1
2019-04-01T09:48:13.862Z,1012.1
2019-04-01T09:49:13.874Z,1012.09
2019-04-01T09:50:13.899Z,1012.08
2019-04-01T09:51:13.931Z,1012.05
2019-04-01T09:52:13.790Z,1012.03
2019-04-01T09:53:13.910Z,1012.04
2019-04-01T09:54:14.351Z,1012.15
2019-04-01T09:55:13.643Z,1012.03
2019-04-01T09:56:13.668Z,1012.08
2019-04-01T09:57:17.621Z,1012.09
2019-04-01T09:58:13.746Z,1012.04
2019-04-01T09:59:13.921Z,1012.07
2019-04-01T10:00:13.692Z,1012
2019-04-01T10:01:13.656Z,1011.93
2019-04-01T10:02:13.498Z,1011.98
2019-04-01T10:03:13.621Z,1011.97
2019-04-01T10:04:13.551Z,1012
2019-04-01T10:05:13.479Z,1011.94
2019-04-01T10:06:13.298Z,1011.93
2019-04-01T10:07:13.274Z,1011.92
2019-04-01T10:08:13.389Z,1011.9
2019-04-01T10:09:13.267Z,1011.86
2019-04-01T10:10:13.256Z,1011.79
2019-04-01T10:11:13.246Z,1011.85
2019-04-01T10:12:13.447Z,1011.86
2019-04-01T10:13:13.156Z,1011.82
2019-04-01T10:14:13.131Z,1011.89
2019-04-01T10:15:13.196Z,1011.77
2019-04-01T10:16:13.175Z,1011.8
2019-04-01T10:17:13.252Z,1011.72
2019-04-01T10:18:13.250Z,1011.76
2019-04-01T10:19:13.253Z,1011.72
2019-04-01T10:20:13.234Z,1011.69
2019-04-01T10:21:13.224Z,1011.65
2019-04-01T10:22:12.966Z,1011.71
2019-04-01T10:23:13.087Z,1011.73
2019-04-01T10:24:13.072Z,1011.76
2019-04-01T10:25:13.054Z,1011.69
2019-04-01T10:26:13.019Z,1011.67
2019-04-01T10:27:12.997Z,1011.64
2019-04-01T10:28:13.007Z,1011.65
2019-04-01T10:29:12.873Z,1011.63
2019-04-01T10:30:12.737Z,1011.58
2019-04-01T10:31:12.428Z,1011.59
2019-04-01T10:32:12.819Z,1011.51
2019-04-01T10:33:12.671Z,1011.53
2019-04-01T10:34:12.700Z,1011.61
2019-04-01T10:35:12.742Z,1011.55
2019-04-01T10:36:12.747Z,1011.61
2019-04-01T10:37:12.701Z,1011.52
2019-04-01T10:38:12.639Z,1011.48
2019-04-01T10:39:12.673Z,1011.48
2019-04-01T10:40:12.746Z,1011.47
2019-04-01T10:41:12.535Z,1011.46
2019-04-01T10:42:12.548Z,1011.36
2019-04-01T10:43:12.398Z,1011.35
2019-04-01T10:44:12.304Z,1011.35
2019-04-01T10:45:13.885Z,1011.37
2019-04-01T10:46:12.619Z,1011.38
2019-04-01T10:47:12.445Z,1011.3
2019-04-01T10:48:12.487Z,1011.32
2019-04-01T10:49:12.484Z,1011.29
2019-04-01T10:50:12.502Z,1011.29
2019-04-01T10:51:12.473Z,1011.31
2019-04-01T10:52:12.460Z,1011.2
2019-04-01T10:53:12.216Z,1011.22
2019-04-01T10:54:12.439Z,1011.15
2019-04-01T10:55:12.231Z,1011.15
2019-04-01T10:56:12.246Z,1011.18
2019-04-01T10:57:12.216Z,1011.18
2019-04-01T10:58:12.396Z,1011.13
2019-04-01T10:59:12.089Z,1011.13
2019-04-01T11:00:12.276Z,1011.09
2019-04-01T11:01:12.276Z,1011.12
2019-04-01T11:02:11.711Z,1011.12
2019-04-01T11:03:11.631Z,1011.1
2019-04-01T11:04:11.599Z,1011.03
2019-04-01T11:05:11.636Z,1011.05
2019-04-01T11:06:11.552Z,1011.08
2019-04-01T11:07:11.529Z,1011.03
2019-04-01T11:08:11.581Z,1011.04
2019-04-01T11:09:11.666Z,1011
2019-04-01T11:10:11.975Z,1011
2019-04-01T11:11:11.435Z,1011.03
2019-04-01T11:12:11.415Z,1011.02
2019-04-01T11:13:11.391Z,1010.98
2019-04-01T11:14:11.371Z,1010.96
2019-04-01T11:15:15.079Z,1010.96
2019-04-01T11:16:11.320Z,1010.95
2019-04-01T11:17:11.331Z,1010.95
2019-04-01T11:18:12.008Z,1010.98
2019-04-01T11:19:11.252Z,1010.96
2019-04-01T11:20:11.229Z,1010.93
2019-04-01T11:21:11.309Z,1010.89
2019-04-01T11:22:11.183Z,1010.9
2019-04-01T11:23:11.164Z,1010.9
2019-04-01T11:24:11.138Z,1010.92
2019-04-01T11:25:11.114Z,1010.91
2019-04-01T11:26:11.188Z,1010.85
2019-04-01T11:27:11.069Z,1010.86
2019-04-01T11:28:11.048Z,1010.85
2019-04-01T11:29:11.028Z,1010.82
2019-04-01T11:30:13.665Z,1010.82
2019-04-01T11:31:10.983Z,1010.83
2019-04-01T11:32:13.309Z,1010.85
2019-04-01T11:33:10.974Z,1010.78
2019-04-01T11:34:10.966Z,1010.78
2019-04-01T11:35:10.918Z,1010.82
2019-04-01T11:36:10.877Z,1010.75
2019-04-01T11:37:10.867Z,1010.68
2019-04-01T11:38:10.861Z,1010.66
2019-04-01T11:39:10.865Z,1010.69
2019-04-01T11:40:12.073Z,1010.65
2019-04-01T11:41:10.756Z,1010.64
2019-04-01T11:42:10.771Z,1010.57
2019-04-01T11:43:10.734Z,1010.59
2019-04-01T11:44:10.737Z,1010.6
2019-04-01T11:45:10.700Z,1010.59
2019-04-01T11:46:12.467Z,1010.57
2019-04-01T11:47:10.669Z,1010.5
2019-04-01T11:48:10.890Z,1010.56
2019-04-01T11:49:10.634Z,1010.42
2019-04-01T11:50:10.712Z,1010.49
2019-04-01T11:51:10.569Z,1010.45
2019-04-01T11:52:10.531Z,1010.44
2019-04-01T11:53:10.485Z,1010.43
2019-04-01T11:54:10.547Z,1010.48
2019-04-01T11:55:10.449Z,1010.45
2019-04-01T11:56:10.897Z,1010.39
2019-04-01T11:57:11.065Z,1010.41
2019-04-01T11:58:10.373Z,1010.37
2019-04-01T11:59:10.353Z,1010.4
2019-04-01T12:00:12.587Z,1010.39
2019-04-01T12:01:10.308Z,1010.36
2019-04-01T12:02:10.284Z,1010.39
2019-04-01T12:03:10.263Z,1010.37
2019-04-01T12:04:10.241Z,1010.35
2019-04-01T12:05:10.225Z,1010.35
2019-04-01T12:06:10.197Z,1010.33
2019-04-01T12:07:10.175Z,1010.33
2019-04-01T12:08:10.154Z,1010.34